createdAt,value
2019-02-18T00:01:21.383Z,2.50
2019-02-18T00:02:37.664Z,2.50
2019-02-18T00:03:54.175Z,2.50
2019-02-18T00:05:10.842Z,2.50
2019-02-18T00:06:27.599Z,2.50
2019-02-18T00:07:43.848Z,2.50
2019-02-18T00:09:00.644Z,2.50
2019-02-18T00:10:19.412Z,2.50
2019-02-18T00:11:36.264Z,2.50
2019-02-18T00:12:52.712Z,2.50
2019-02-18T00:14:09.281Z,2.50
2019-02-18T00:15:25.852Z,2.50
2019-02-18T00:16:42.467Z,2.50
2019-02-18T00:17:59.214Z,2.40
2019-02-18T00:19:15.889Z,2.40
2019-02-18T00:20:32.587Z,2.40
2019-02-18T00:21:49.333Z,2.40
2019-02-18T00:23:06.137Z,2.40
2019-02-18T00:24:22.664Z,2.40
2019-02-18T00:25:39.348Z,2.40
2019-02-18T00:26:56.182Z,2.40
2019-02-18T00:28:12.849Z,2.40
2019-02-18T00:29:29.276Z,2.40
2019-02-18T00:30:45.835Z,2.40
2019-02-18T00:32:02.791Z,2.40
2019-02-18T00:33:19.427Z,2.40
2019-02-18T00:34:36.120Z,2.30
2019-02-18T00:35:52.664Z,2.30
2019-02-18T00:37:09.440Z,2.40
2019-02-18T00:38:25.954Z,2.30
2019-02-18T00:39:42.195Z,2.30
2019-02-18T00:40:59.335Z,2.30
2019-02-18T00:42:16.105Z,2.30
2019-02-18T00:43:32.747Z,2.30
2019-02-18T00:44:49.018Z,2.30
2019-02-18T00:46:06.087Z,2.30
2019-02-18T00:47:22.375Z,2.30
2019-02-18T00:48:38.847Z,2.30
2019-02-18T00:49:55.661Z,2.30
2019-02-18T00:51:12.600Z,2.30
2019-02-18T00:52:29.291Z,2.30
2019-02-18T00:53:45.847Z,2.30
2019-02-18T00:55:02.111Z,2.30
2019-02-18T00:56:19.271Z,2.30
2019-02-18T00:57:36.085Z,2.30
2019-02-18T00:58:52.318Z,2.20
2019-02-18T01:00:08.827Z,2.20
2019-02-18T01:01:25.309Z,2.20
2019-02-18T01:02:41.823Z,2.20
2019-02-18T01:03:58.100Z,2.20
2019-02-18T01:05:14.440Z,2.20
2019-02-18T01:06:31.110Z,2.20
2019-02-18T01:07:47.486Z,2.20
2019-02-18T01:09:04.716Z,2.20
2019-02-18T01:10:21.503Z,2.20
2019-02-18T01:11:37.963Z,2.20
2019-02-18T01:12:55.120Z,2.20
2019-02-18T01:14:11.532Z,2.20
2019-02-18T01:15:28.007Z,2.20
2019-02-18T01:16:44.200Z,2.20
2019-02-18T01:18:00.413Z,2.20
2019-02-18T01:19:16.745Z,2.10
2019-02-18T01:21:49.845Z,2.10
2019-02-18T01:23:06.455Z,2.10
2019-02-18T01:24:22.981Z,2.10
2019-02-18T01:25:39.634Z,2.10
2019-02-18T01:26:56.093Z,2.10
2019-02-18T01:28:13.221Z,2.00
2019-02-18T01:29:29.599Z,2.00
2019-02-18T01:30:46.337Z,2.00
2019-02-18T01:32:02.924Z,2.00
2019-02-18T01:33:19.577Z,2.00
2019-02-18T01:34:36.699Z,2.00
2019-02-18T01:35:53.587Z,1.90
2019-02-18T01:37:10.708Z,2.00
2019-02-18T01:38:26.920Z,2.00
2019-02-18T01:39:43.158Z,2.00
2019-02-18T01:41:00.042Z,2.00
2019-02-18T01:42:16.419Z,1.90
2019-02-18T01:43:32.628Z,1.90
2019-02-18T01:44:49.408Z,1.90
2019-02-18T01:46:05.882Z,1.80
2019-02-18T01:47:22.542Z,1.80
2019-02-18T01:48:38.995Z,1.80
2019-02-18T01:49:55.624Z,1.80
2019-02-18T01:51:12.300Z,1.80
2019-02-18T01:52:28.768Z,1.80
2019-02-18T01:53:45.148Z,1.80
2019-02-18T01:55:01.430Z,1.70
2019-02-18T01:56:18.289Z,1.70
2019-02-18T01:57:35.068Z,1.70
2019-02-18T01:58:51.732Z,1.70
2019-02-18T02:00:08.370Z,1.70
2019-02-18T02:01:25.034Z,1.70
2019-02-18T02:02:41.825Z,1.70
2019-02-18T02:03:59.575Z,1.70
2019-02-18T02:05:16.240Z,1.60
2019-02-18T02:06:32.522Z,1.60
2019-02-18T02:07:55.707Z,1.60
2019-02-18T02:09:08.667Z,1.60
2019-02-18T02:10:25.001Z,1.60
2019-02-18T02:11:42.108Z,1.60
2019-02-18T02:12:58.603Z,1.60
2019-02-18T02:14:14.969Z,1.50
2019-02-18T02:15:31.161Z,1.50
2019-02-18T02:16:47.419Z,1.50
2019-02-18T02:18:03.987Z,1.50
2019-02-18T02:19:20.572Z,1.50
2019-02-18T02:20:37.078Z,1.50
2019-02-18T02:21:53.816Z,1.50
2019-02-18T02:23:10.242Z,1.50
2019-02-18T02:24:26.715Z,1.40
2019-02-18T02:25:43.088Z,1.40
2019-02-18T02:26:59.581Z,1.40
2019-02-18T02:28:16.242Z,1.40
2019-02-18T02:29:32.703Z,1.40
2019-02-18T02:30:48.919Z,1.40
2019-02-18T02:32:05.519Z,1.30
2019-02-18T02:33:22.129Z,1.30
2019-02-18T02:34:38.847Z,1.30
2019-02-18T02:35:55.473Z,1.30
2019-02-18T02:37:12.176Z,1.30
2019-02-18T02:38:28.822Z,1.30
2019-02-18T02:39:45.500Z,1.30
2019-02-18T02:41:01.860Z,1.30
2019-02-18T02:42:18.189Z,1.30
2019-02-18T02:43:34.533Z,1.30
2019-02-18T02:44:51.407Z,1.20
2019-02-18T02:46:08.143Z,1.20
2019-02-18T02:47:24.600Z,1.20
2019-02-18T02:48:41.210Z,1.20
2019-02-18T02:49:57.881Z,1.20
2019-02-18T02:51:14.330Z,1.10
2019-02-18T02:52:30.952Z,1.10
2019-02-18T02:53:47.435Z,1.10
2019-02-18T02:55:03.732Z,1.10
2019-02-18T02:56:20.289Z,1.10
2019-02-18T02:57:36.924Z,1.00
2019-02-18T02:58:53.188Z,1.10
2019-02-18T03:00:10.287Z,1.10
2019-02-18T03:01:26.879Z,1.00
2019-02-18T03:02:43.305Z,1.00
2019-02-18T03:04:00.346Z,1.00
2019-02-18T03:05:16.864Z,0.90
2019-02-18T03:06:34.158Z,0.90
2019-02-18T03:07:50.392Z,0.90
2019-02-18T03:09:08.852Z,0.90
2019-02-18T03:10:25.797Z,0.80
2019-02-18T03:11:42.096Z,0.80
2019-02-18T03:12:58.711Z,0.80
2019-02-18T03:14:15.228Z,0.80
2019-02-18T03:15:32.090Z,0.70
2019-02-18T03:16:48.815Z,0.70
2019-02-18T03:18:05.525Z,0.70
2019-02-18T03:19:21.919Z,0.70
2019-02-18T03:20:38.876Z,0.70
2019-02-18T03:21:55.518Z,0.70
2019-02-18T03:23:12.133Z,0.70
2019-02-18T03:24:28.673Z,0.70
2019-02-18T03:26:59.622Z,0.70
2019-02-18T03:28:16.010Z,0.70
2019-02-18T03:29:32.581Z,0.70
2019-02-18T03:30:49.157Z,0.60
2019-02-18T03:32:06.741Z,0.60
2019-02-18T03:33:23.133Z,0.60
2019-02-18T03:34:39.871Z,0.60
2019-02-18T03:35:56.995Z,0.60
2019-02-18T03:37:13.931Z,0.50
2019-02-18T03:38:31.938Z,0.50
2019-02-18T03:39:48.312Z,0.40
2019-02-18T03:41:05.001Z,0.40
2019-02-18T03:42:21.629Z,0.40
2019-02-18T03:43:38.256Z,0.40
2019-02-18T03:44:54.879Z,0.40
2019-02-18T03:46:11.551Z,0.40
2019-02-18T03:47:28.028Z,0.40
2019-02-18T03:48:44.480Z,0.40
2019-02-18T03:50:00.991Z,0.30
2019-02-18T03:51:17.670Z,0.30
2019-02-18T03:52:34.102Z,0.30
2019-02-18T03:53:50.450Z,0.20
2019-02-18T03:55:06.675Z,0.20
2019-02-18T03:56:22.980Z,0.20
2019-02-18T03:57:39.340Z,0.20
2019-02-18T03:58:55.628Z,0.20
2019-02-18T04:00:11.899Z,0.20
2019-02-18T04:01:28.103Z,0.20
2019-02-18T04:02:45.415Z,0.20
2019-02-18T04:04:01.739Z,0.10
2019-02-18T04:05:18.139Z,0.10
2019-02-18T04:06:34.496Z,0.10
2019-02-18T04:07:50.794Z,0.10
2019-02-18T04:09:10.914Z,0.10
2019-02-18T04:10:27.156Z,0.10
2019-02-18T04:11:43.662Z,0.10
2019-02-18T04:13:00.349Z,0.10
2019-02-18T04:14:16.634Z,0.10
2019-02-18T04:15:32.969Z,0.10
2019-02-18T04:16:49.184Z,0.10
2019-02-18T04:18:05.758Z,0.10
2019-02-18T04:19:22.300Z,0.10
2019-02-18T04:20:38.662Z,0.10
2019-02-18T04:21:55.223Z,0.00
2019-02-18T04:23:11.822Z,0.00
2019-02-18T04:24:28.264Z,0.00
2019-02-18T04:25:44.764Z,0.00
2019-02-18T04:27:01.405Z,0.00
2019-02-18T04:28:17.647Z,0.00
2019-02-18T04:29:34.107Z,0.00
2019-02-18T04:30:50.648Z,0.00
2019-02-18T04:32:07.270Z,0.00
2019-02-18T04:33:24.828Z,0.00
2019-02-18T04:34:41.961Z,0.00
2019-02-18T04:35:58.441Z,0.00
2019-02-18T04:37:14.700Z,0.00
2019-02-18T04:38:31.039Z,-0.10
2019-02-18T04:39:47.316Z,-0.10
2019-02-18T04:41:03.813Z,-0.10
2019-02-18T04:42:20.916Z,-0.10
2019-02-18T04:43:37.689Z,-0.10
2019-02-18T04:44:54.328Z,-0.10
2019-02-18T04:46:10.762Z,-0.10
2019-02-18T04:47:27.594Z,-0.10
2019-02-18T04:48:44.118Z,-0.10
2019-02-18T04:50:00.752Z,-0.10
2019-02-18T04:51:18.493Z,-0.10
2019-02-18T04:52:35.067Z,-0.10
2019-02-18T04:53:51.923Z,-0.10
2019-02-18T04:55:08.525Z,-0.10
2019-02-18T04:56:25.348Z,-0.10
2019-02-18T04:57:41.703Z,-0.10
2019-02-18T04:58:58.077Z,-0.10
2019-02-18T05:00:14.680Z,-0.10
2019-02-18T05:01:31.139Z,-0.10
2019-02-18T05:02:48.248Z,-0.10
2019-02-18T05:04:04.868Z,-0.10
2019-02-18T05:05:21.390Z,-0.20
2019-02-18T05:06:38.037Z,-0.20
2019-02-18T05:07:54.782Z,-0.20
2019-02-18T05:09:11.381Z,-0.20
2019-02-18T05:10:28.461Z,-0.20
2019-02-18T05:11:44.892Z,-0.20
2019-02-18T05:13:01.236Z,-0.20
2019-02-18T05:14:18.150Z,-0.20
2019-02-18T05:16:47.176Z,-0.20
2019-02-18T05:18:03.952Z,-0.20
2019-02-18T05:19:22.963Z,-0.20
2019-02-18T05:20:39.434Z,-0.20
2019-02-18T05:21:57.543Z,-0.20
2019-02-18T05:23:14.313Z,-0.20
2019-02-18T05:24:31.102Z,-0.20
2019-02-18T05:25:47.632Z,-0.20
2019-02-18T05:27:04.001Z,-0.20
2019-02-18T05:28:20.835Z,-0.30
2019-02-18T05:29:37.112Z,-0.20
2019-02-18T05:30:55.186Z,-0.30
2019-02-18T05:32:11.748Z,-0.30
2019-02-18T05:33:29.243Z,-0.30
2019-02-18T05:34:46.311Z,-0.30
2019-02-18T05:36:02.955Z,-0.30
2019-02-18T05:37:19.603Z,-0.30
2019-02-18T05:38:36.282Z,-0.30
2019-02-18T05:39:55.483Z,-0.30
2019-02-18T05:41:12.569Z,-0.30
2019-02-18T05:42:29.250Z,-0.30
2019-02-18T05:43:49.183Z,-0.30
2019-02-18T05:45:06.363Z,-0.30
2019-02-18T05:47:21.109Z,-0.30
2019-02-18T05:48:38.057Z,-0.30
2019-02-18T05:49:54.853Z,-0.30
2019-02-18T05:51:11.527Z,-0.30
2019-02-18T05:52:28.712Z,-0.30
2019-02-18T05:53:45.342Z,-0.30
2019-02-18T05:55:02.327Z,-0.40
2019-02-18T05:56:19.424Z,-0.40
2019-02-18T05:57:35.943Z,-0.40
2019-02-18T05:58:52.660Z,-0.40
2019-02-18T06:00:09.771Z,-0.40
2019-02-18T06:01:26.775Z,-0.40
2019-02-18T06:02:43.102Z,-0.40
2019-02-18T06:04:00.234Z,-0.40
2019-02-18T06:05:17.551Z,-0.40
2019-02-18T06:06:35.088Z,-0.40
2019-02-18T06:07:52.346Z,-0.40
2019-02-18T06:09:09.454Z,-0.40
2019-02-18T06:10:26.266Z,-0.40
2019-02-18T06:11:42.477Z,-0.40
2019-02-18T06:12:59.196Z,-0.40
2019-02-18T06:14:15.974Z,-0.40
2019-02-18T06:15:33.219Z,-0.50
2019-02-18T06:16:49.866Z,-0.50
2019-02-18T06:18:06.190Z,-0.50
2019-02-18T06:19:22.696Z,-0.50
2019-02-18T06:20:39.301Z,-0.50
2019-02-18T06:21:55.807Z,-0.50
2019-02-18T06:23:12.171Z,-0.40
2019-02-18T06:24:28.659Z,-0.40
2019-02-18T06:25:45.278Z,-0.40
2019-02-18T06:27:01.971Z,-0.50
2019-02-18T06:28:18.243Z,-0.50
2019-02-18T06:29:34.525Z,-0.50
2019-02-18T06:30:51.076Z,-0.50
2019-02-18T06:32:07.745Z,-0.50
2019-02-18T06:33:24.253Z,-0.50
2019-02-18T06:34:40.725Z,-0.50
2019-02-18T06:35:57.307Z,-0.50
2019-02-18T06:37:13.585Z,-0.40
2019-02-18T06:38:30.039Z,-0.40
2019-02-18T06:39:46.723Z,-0.40
2019-02-18T06:41:03.334Z,-0.40
2019-02-18T06:42:20.071Z,-0.40
2019-02-18T06:43:36.465Z,-0.40
2019-02-18T06:46:52.453Z,-0.30
2019-02-18T06:50:14.508Z,-0.30
2019-02-18T06:51:31.345Z,-0.30
2019-02-18T06:52:47.699Z,-0.20
2019-02-18T06:54:04.217Z,-0.30
2019-02-18T06:55:20.744Z,-0.20
2019-02-18T06:58:34.720Z,-0.20
2019-02-18T06:59:56.420Z,-0.20
2019-02-18T07:01:32.296Z,-0.20
2019-02-18T07:03:07.632Z,-0.10
2019-02-18T07:04:31.371Z,-0.10
2019-02-18T07:06:02.882Z,-0.10
2019-02-18T07:07:38.830Z,0.00
2019-02-18T07:09:02.301Z,0.00
2019-02-18T07:10:27.692Z,0.00
2019-02-18T07:11:49.054Z,0.00
2019-02-18T07:13:06.149Z,0.00
2019-02-18T07:14:22.454Z,0.10
2019-02-18T07:15:38.766Z,0.10
2019-02-18T07:16:55.156Z,0.10
2019-02-18T07:18:12.120Z,0.20
2019-02-18T07:19:28.719Z,0.20
2019-02-18T07:20:45.233Z,0.20
2019-02-18T07:22:01.813Z,0.30
2019-02-18T07:23:18.925Z,0.30
2019-02-18T07:24:35.375Z,0.40
2019-02-18T07:25:51.949Z,0.40
2019-02-18T07:27:08.709Z,0.40
2019-02-18T07:28:25.474Z,0.50
2019-02-18T07:29:42.413Z,0.50
2019-02-18T07:30:59.004Z,0.50
2019-02-18T07:32:15.577Z,0.60
2019-02-18T07:33:32.059Z,0.60
2019-02-18T07:34:48.463Z,0.60
2019-02-18T07:36:05.046Z,0.70
2019-02-18T07:37:21.506Z,0.70
2019-02-18T07:38:37.955Z,0.70
2019-02-18T07:40:01.222Z,0.80
2019-02-18T07:41:12.708Z,0.80
2019-02-18T07:42:29.346Z,0.90
2019-02-18T07:43:45.946Z,0.90
2019-02-18T07:45:02.258Z,0.90
2019-02-18T07:46:19.380Z,1.00
2019-02-18T07:47:36.076Z,1.00
2019-02-18T07:48:52.547Z,1.10
2019-02-18T07:50:08.732Z,1.10
2019-02-18T07:51:25.109Z,1.20
2019-02-18T07:52:41.595Z,1.20
2019-02-18T07:53:57.853Z,1.30
2019-02-18T07:55:14.144Z,1.40
2019-02-18T07:56:30.473Z,1.40
2019-02-18T07:57:47.132Z,1.40
2019-02-18T07:59:03.679Z,1.50
2019-02-18T08:00:20.016Z,1.50
2019-02-18T08:01:39.274Z,1.60
2019-02-18T08:02:56.397Z,1.60
2019-02-18T08:04:13.432Z,1.70
2019-02-18T08:05:29.733Z,1.70
2019-02-18T08:06:46.716Z,1.80
2019-02-18T08:08:03.303Z,1.80
2019-02-18T08:09:19.952Z,1.90
2019-02-18T08:10:37.064Z,1.90
2019-02-18T08:11:53.858Z,2.00
2019-02-18T08:13:10.637Z,2.10
2019-02-18T08:14:27.136Z,2.10
2019-02-18T08:15:43.667Z,2.20
2019-02-18T08:17:00.099Z,2.20
2019-02-18T08:18:16.468Z,2.30
2019-02-18T08:19:32.853Z,2.40
2019-02-18T08:20:49.656Z,2.50
2019-02-18T08:22:06.310Z,2.50
2019-02-18T08:23:22.944Z,2.60
2019-02-18T08:24:39.428Z,2.60
2019-02-18T08:25:56.464Z,2.70
2019-02-18T08:27:13.342Z,2.70
2019-02-18T08:28:29.964Z,2.80
2019-02-18T08:29:47.041Z,2.90
2019-02-18T08:31:03.615Z,3.00
2019-02-18T08:32:20.364Z,3.00
2019-02-18T08:33:39.888Z,3.10
2019-02-18T08:34:57.055Z,3.20
2019-02-18T08:36:13.473Z,3.30
2019-02-18T08:37:30.397Z,3.40
2019-02-18T08:38:47.144Z,3.50
2019-02-18T08:40:04.001Z,3.60
2019-02-18T08:41:20.463Z,3.80
2019-02-18T08:42:37.581Z,4.20
2019-02-18T08:43:54.381Z,4.60
2019-02-18T08:45:11.460Z,5.10
2019-02-18T08:46:27.756Z,5.70
2019-02-18T08:47:44.152Z,6.40
2019-02-18T08:49:00.557Z,7.10
2019-02-18T08:50:16.883Z,7.80
2019-02-18T08:51:33.597Z,8.40
2019-02-18T08:52:49.989Z,8.90
2019-02-18T08:54:06.414Z,9.40
2019-02-18T08:55:23.013Z,10.00
2019-02-18T08:56:39.500Z,10.30
2019-02-18T08:57:55.870Z,10.50
2019-02-18T08:59:12.336Z,10.50
2019-02-18T09:00:29.715Z,10.50
2019-02-18T09:01:46.443Z,10.50
2019-02-18T09:03:02.900Z,10.40
2019-02-18T09:04:19.392Z,10.50
2019-02-18T09:05:36.130Z,10.40
2019-02-18T09:06:52.636Z,10.40
2019-02-18T09:08:09.281Z,10.20
2019-02-18T09:09:26.178Z,10.00
2019-02-18T09:10:42.890Z,9.80
2019-02-18T09:11:59.564Z,9.50
2019-02-18T09:13:16.365Z,9.20
2019-02-18T09:14:33.008Z,9.00
2019-02-18T09:15:59.484Z,8.80
2019-02-18T09:17:08.060Z,8.60
2019-02-18T09:18:24.339Z,8.50
2019-02-18T09:19:41.466Z,8.40
2019-02-18T09:20:58.309Z,8.30
2019-02-18T09:22:33.900Z,8.30
2019-02-18T09:24:06.705Z,8.10
2019-02-18T09:25:25.429Z,8.00
2019-02-18T09:26:42.266Z,8.00
2019-02-18T09:27:58.761Z,7.90
2019-02-18T09:29:15.240Z,7.90
2019-02-18T09:30:34.105Z,7.90
2019-02-18T09:31:51.257Z,7.90
2019-02-18T09:33:07.576Z,7.90
2019-02-18T09:34:24.384Z,7.90
2019-02-18T09:35:40.595Z,7.90
2019-02-18T09:36:57.048Z,7.80
2019-02-18T09:38:23.818Z,7.90
2019-02-18T09:39:31.856Z,7.90
2019-02-18T09:40:51.350Z,7.90
2019-02-18T09:42:07.039Z,7.90
2019-02-18T09:43:23.737Z,7.90
2019-02-18T09:44:40.614Z,7.90
2019-02-18T09:45:56.941Z,8.00
2019-02-18T09:47:13.485Z,8.00
2019-02-18T09:48:29.938Z,8.10
2019-02-18T09:49:47.169Z,8.20
2019-02-18T09:51:03.788Z,8.20
2019-02-18T09:52:20.071Z,8.30
2019-02-18T09:53:37.226Z,8.30
2019-02-18T09:54:53.950Z,8.30
2019-02-18T09:56:10.587Z,8.30
2019-02-18T09:57:27.056Z,8.40
2019-02-18T09:58:43.274Z,8.40
2019-02-18T09:59:59.944Z,8.40
2019-02-18T10:01:16.635Z,8.40
2019-02-18T10:02:33.196Z,8.40
2019-02-18T10:03:49.921Z,8.40
2019-02-18T10:05:06.535Z,8.40
2019-02-18T10:06:23.275Z,8.40
2019-02-18T10:07:39.662Z,8.40
2019-02-18T10:08:56.610Z,8.40
2019-02-18T10:10:13.062Z,8.50
2019-02-18T10:11:29.373Z,8.50
2019-02-18T10:12:45.774Z,8.60
2019-02-18T10:14:02.292Z,8.60
2019-02-18T10:15:18.643Z,8.70
2019-02-18T10:16:35.258Z,8.80
2019-02-18T10:17:51.936Z,8.80
2019-02-18T10:19:08.585Z,8.80
2019-02-18T10:20:25.119Z,8.90
2019-02-18T10:21:41.748Z,9.00
2019-02-18T10:22:58.219Z,9.00
2019-02-18T10:24:15.002Z,9.00
2019-02-18T10:25:31.407Z,9.10
2019-02-18T10:26:48.075Z,9.20
2019-02-18T10:28:04.944Z,9.20
2019-02-18T10:29:21.454Z,9.30
2019-02-18T10:30:37.725Z,9.30
2019-02-18T10:31:54.151Z,9.30
2019-02-18T10:33:11.680Z,9.30
2019-02-18T10:34:28.363Z,9.30
2019-02-18T10:35:44.918Z,9.30
2019-02-18T10:37:01.367Z,9.30
2019-02-18T10:38:17.915Z,9.30
2019-02-18T10:39:34.175Z,9.30
2019-02-18T10:40:51.341Z,9.40
2019-02-18T10:42:08.361Z,9.50
2019-02-18T10:43:13.441Z,9.50
2019-02-18T10:44:37.260Z,9.60
2019-02-18T10:45:54.104Z,9.70
2019-02-18T10:47:10.682Z,9.80
2019-02-18T10:48:27.075Z,9.80
2019-02-18T10:49:43.485Z,9.90
2019-02-18T10:50:59.835Z,10.00
2019-02-18T10:52:16.061Z,10.00
2019-02-18T10:53:32.486Z,10.10
2019-02-18T10:54:49.686Z,10.10
2019-02-18T10:56:06.961Z,10.20
2019-02-18T10:57:23.581Z,10.30
2019-02-18T10:58:40.632Z,10.30
2019-02-18T10:59:59.206Z,10.40
2019-02-18T11:01:15.187Z,10.40
2019-02-18T11:02:31.770Z,10.40
2019-02-18T11:03:48.973Z,10.50
2019-02-18T11:05:05.337Z,10.50
2019-02-18T11:06:21.626Z,10.50
2019-02-18T11:07:38.214Z,10.50
2019-02-18T11:08:54.711Z,10.50
2019-02-18T11:10:11.118Z,10.50
2019-02-18T11:11:27.662Z,10.50
2019-02-18T11:12:44.067Z,10.50
2019-02-18T11:14:00.719Z,10.60
2019-02-18T11:15:17.394Z,10.60
2019-02-18T11:16:34.448Z,10.70
2019-02-18T11:17:51.092Z,10.70
2019-02-18T11:19:07.327Z,10.70
2019-02-18T11:20:23.725Z,10.80
2019-02-18T11:21:40.262Z,10.80
2019-02-18T11:22:57.475Z,10.80
2019-02-18T11:24:13.840Z,10.90
2019-02-18T11:25:30.254Z,10.90
2019-02-18T11:26:47.204Z,11.00
2019-02-18T11:28:03.538Z,11.00
2019-02-18T11:29:20.275Z,11.10
2019-02-18T11:30:38.973Z,11.10
2019-02-18T11:31:55.109Z,11.10
2019-02-18T11:33:11.738Z,11.10
2019-02-18T11:34:28.716Z,11.20
2019-02-18T11:35:46.146Z,11.20
2019-02-18T11:37:02.368Z,11.20
2019-02-18T11:38:18.741Z,11.30
2019-02-18T11:39:35.533Z,11.30
2019-02-18T11:40:51.997Z,11.40
2019-02-18T11:42:08.427Z,11.40
2019-02-18T11:43:25.097Z,11.40
2019-02-18T11:44:41.671Z,11.50
2019-02-18T11:45:58.064Z,11.50
2019-02-18T11:47:14.754Z,11.50
2019-02-18T11:48:31.685Z,11.60
2019-02-18T11:49:48.167Z,11.60
2019-02-18T11:51:04.900Z,11.60
2019-02-18T11:52:21.469Z,11.60
2019-02-18T11:53:38.254Z,11.60
2019-02-18T11:54:55.567Z,11.60
2019-02-18T11:56:11.933Z,11.60
2019-02-18T11:57:28.108Z,11.60
2019-02-18T11:58:44.568Z,11.70
2019-02-18T12:00:00.848Z,11.70
2019-02-18T12:01:17.310Z,11.70
2019-02-18T12:02:34.277Z,11.70
2019-02-18T12:03:50.739Z,11.80
2019-02-18T12:05:07.132Z,11.80
2019-02-18T12:06:23.625Z,11.80
2019-02-18T12:07:40.730Z,11.80
2019-02-18T12:08:57.347Z,11.80
2019-02-18T12:10:14.461Z,11.90
2019-02-18T12:11:38.072Z,11.90
2019-02-18T12:12:49.980Z,11.90
2019-02-18T12:14:06.338Z,12.00
2019-02-18T12:15:23.494Z,12.00
2019-02-18T12:16:40.080Z,12.00
2019-02-18T12:17:56.563Z,12.00
2019-02-18T12:19:13.653Z,12.00
2019-02-18T12:20:30.919Z,12.00
2019-02-18T12:21:47.187Z,12.00
2019-02-18T12:22:51.989Z,12.10
2019-02-18T12:23:56.887Z,12.10
2019-02-18T12:25:01.666Z,12.10
2019-02-18T12:26:06.261Z,12.10
2019-02-18T12:27:10.855Z,12.20
2019-02-18T12:28:15.443Z,12.20
2019-02-18T12:29:26.163Z,12.30
2019-02-18T12:30:26.394Z,12.30
2019-02-18T12:31:31.007Z,12.30
2019-02-18T12:32:35.658Z,12.40
2019-02-18T12:33:40.282Z,12.40
2019-02-18T12:34:45.042Z,12.50
2019-02-18T12:35:49.652Z,12.50
2019-02-18T12:36:54.368Z,12.50
2019-02-18T12:37:59.021Z,12.50
2019-02-18T12:39:06.125Z,12.50
2019-02-18T12:40:10.779Z,12.50
2019-02-18T12:41:15.396Z,12.50
2019-02-18T12:42:20.314Z,12.50
2019-02-18T12:43:25.192Z,12.60
2019-02-18T12:44:29.798Z,12.60
2019-02-18T12:45:34.497Z,12.70
2019-02-18T12:46:39.075Z,12.70
2019-02-18T12:47:43.678Z,12.80
2019-02-18T12:48:48.315Z,12.80
2019-02-18T12:49:52.907Z,12.80
2019-02-18T12:50:57.600Z,12.80
2019-02-18T12:52:02.241Z,12.80
2019-02-18T12:53:06.872Z,12.80
2019-02-18T12:54:11.535Z,12.80
2019-02-18T12:55:16.426Z,12.80
2019-02-18T12:56:21.223Z,12.80
2019-02-18T12:57:26.022Z,12.80
2019-02-18T12:58:30.989Z,12.90
2019-02-18T12:59:35.734Z,12.90
2019-02-18T13:00:40.451Z,12.90
2019-02-18T13:01:45.039Z,12.90
2019-02-18T13:02:49.756Z,13.00
2019-02-18T13:03:54.503Z,13.00
2019-02-18T13:04:59.166Z,13.00
2019-02-18T13:06:03.991Z,12.90
2019-02-18T13:07:08.722Z,12.90
2019-02-18T13:08:13.455Z,12.90
2019-02-18T13:09:18.143Z,13.00
2019-02-18T13:10:22.809Z,13.00
2019-02-18T13:11:27.554Z,13.00
2019-02-18T13:12:32.375Z,13.00
2019-02-18T13:13:37.376Z,13.00
2019-02-18T13:14:42.158Z,13.00
2019-02-18T13:15:46.816Z,13.00
2019-02-18T13:16:51.442Z,13.10
2019-02-18T13:17:56.077Z,13.10
2019-02-18T13:19:00.794Z,13.10
2019-02-18T13:20:05.511Z,13.10
2019-02-18T13:21:10.271Z,13.20
2019-02-18T13:22:15.011Z,13.20
2019-02-18T13:23:19.662Z,13.20
2019-02-18T13:24:24.379Z,13.20
2019-02-18T13:25:29.045Z,13.20
2019-02-18T13:26:33.711Z,13.20
2019-02-18T13:27:38.386Z,13.20
2019-02-18T13:28:43.200Z,13.20
2019-02-18T13:29:48.102Z,13.20
2019-02-18T13:30:52.746Z,13.20
2019-02-18T13:31:57.416Z,13.20
2019-02-18T13:33:01.988Z,13.20
2019-02-18T13:34:06.679Z,13.20
2019-02-18T13:35:11.353Z,13.10
2019-02-18T13:36:16.087Z,13.20
2019-02-18T13:37:20.666Z,13.20
2019-02-18T13:38:25.292Z,13.20
2019-02-18T13:39:29.908Z,13.20
2019-02-18T13:40:34.601Z,13.20
2019-02-18T13:41:39.283Z,13.20
2019-02-18T13:42:43.972Z,13.20
2019-02-18T13:43:48.637Z,13.20
2019-02-18T13:44:53.288Z,13.30
2019-02-18T13:45:58.139Z,13.30
2019-02-18T13:47:03.283Z,13.30
2019-02-18T13:48:07.952Z,13.40
2019-02-18T13:49:12.629Z,13.40
2019-02-18T13:50:17.248Z,13.40
2019-02-18T13:51:24.281Z,13.50
2019-02-18T13:52:28.253Z,13.60
2019-02-18T13:53:32.838Z,13.70
2019-02-18T13:54:37.487Z,13.80
2019-02-18T13:55:42.178Z,13.90
2019-02-18T13:56:46.919Z,14.10
2019-02-18T13:57:51.532Z,14.20
2019-02-18T13:58:56.249Z,14.30
2019-02-18T14:00:00.934Z,14.40
2019-02-18T14:01:06.195Z,14.50
2019-02-18T14:02:10.991Z,14.60
2019-02-18T14:03:15.596Z,14.70
2019-02-18T14:04:20.451Z,14.80
2019-02-18T14:05:25.343Z,14.90
2019-02-18T14:06:29.991Z,14.90
2019-02-18T14:07:36.277Z,14.90
2019-02-18T14:08:41.912Z,15.00
2019-02-18T14:09:46.568Z,15.00
2019-02-18T14:10:51.121Z,15.10
2019-02-18T14:11:55.687Z,15.10
2019-02-18T14:13:00.417Z,15.10
2019-02-18T14:14:05.041Z,15.00
2019-02-18T14:15:11.390Z,15.00
2019-02-18T14:16:16.083Z,15.00
2019-02-18T14:17:20.668Z,15.00
2019-02-18T14:18:25.289Z,15.00
2019-02-18T14:19:29.932Z,15.00
2019-02-18T14:20:34.550Z,15.00
2019-02-18T14:21:39.200Z,15.00
2019-02-18T14:22:44.109Z,15.00
2019-02-18T14:23:49.065Z,14.90
2019-02-18T14:24:53.819Z,14.90
2019-02-18T14:25:58.435Z,14.80
2019-02-18T14:27:03.107Z,14.80
2019-02-18T14:28:07.723Z,14.70
2019-02-18T14:29:12.288Z,14.60
2019-02-18T14:30:17.116Z,14.60
2019-02-18T14:31:21.723Z,14.50
2019-02-18T14:32:26.273Z,14.40
2019-02-18T14:33:30.944Z,14.30
2019-02-18T14:34:35.690Z,14.20
2019-02-18T14:35:40.409Z,14.10
2019-02-18T14:36:45.151Z,14.10
2019-02-18T14:37:49.859Z,14.00
2019-02-18T14:38:54.478Z,13.90
2019-02-18T14:39:59.147Z,13.90
2019-02-18T14:41:04.160Z,13.80
2019-02-18T14:42:09.102Z,13.70
2019-02-18T14:43:13.660Z,13.70
2019-02-18T14:44:18.257Z,13.70
2019-02-18T14:45:22.863Z,13.70
2019-02-18T14:46:27.530Z,13.70
2019-02-18T14:47:32.166Z,13.60
2019-02-18T14:48:36.783Z,13.60
2019-02-18T14:49:41.436Z,13.60
2019-02-18T14:50:46.078Z,13.60
2019-02-18T14:51:50.755Z,13.60
2019-02-18T14:52:55.483Z,13.60
2019-02-18T14:54:00.091Z,13.60
2019-02-18T14:55:05.126Z,13.50
2019-02-18T14:56:13.146Z,13.50
2019-02-18T14:57:17.730Z,13.40
2019-02-18T14:58:22.347Z,13.40
2019-02-18T14:59:28.119Z,13.40
2019-02-18T15:00:33.213Z,13.40
2019-02-18T15:01:37.934Z,13.40
2019-02-18T15:02:43.559Z,13.40
2019-02-18T15:03:48.131Z,13.40
2019-02-18T15:04:52.901Z,13.30
2019-02-18T15:05:57.576Z,13.40
2019-02-18T15:07:02.229Z,13.30
2019-02-18T15:08:06.899Z,13.30
2019-02-18T15:09:11.479Z,13.30
2019-02-18T15:10:16.139Z,13.20
2019-02-18T15:11:20.752Z,13.20
2019-02-18T15:12:32.735Z,13.20
2019-02-18T15:13:31.603Z,13.10
2019-02-18T15:14:36.272Z,13.10
2019-02-18T15:15:40.919Z,13.10
2019-02-18T15:16:45.569Z,13.00
2019-02-18T15:17:50.478Z,13.00
2019-02-18T15:18:55.554Z,12.90
2019-02-18T15:20:00.208Z,12.90
2019-02-18T15:21:04.932Z,12.80
2019-02-18T15:22:09.533Z,12.80
2019-02-18T15:23:14.186Z,12.80
2019-02-18T15:24:18.941Z,12.70
2019-02-18T15:25:23.587Z,12.70
2019-02-18T15:26:28.207Z,12.60
2019-02-18T15:27:32.884Z,12.60
2019-02-18T15:28:37.754Z,12.60
2019-02-18T15:29:42.350Z,12.60
2019-02-18T15:30:47.036Z,12.60
2019-02-18T15:31:51.738Z,12.60
2019-02-18T15:32:56.544Z,12.60
2019-02-18T15:34:01.185Z,12.50
2019-02-18T15:35:05.784Z,12.50
2019-02-18T15:36:10.691Z,12.50
2019-02-18T15:37:16.637Z,12.40
2019-02-18T15:38:21.219Z,12.40
2019-02-18T15:39:26.087Z,12.40
2019-02-18T15:40:30.829Z,12.30
2019-02-18T15:41:35.400Z,12.30
2019-02-18T15:42:42.214Z,12.20
2019-02-18T15:43:46.317Z,12.20
2019-02-18T15:44:51.003Z,12.20
2019-02-18T15:45:55.606Z,12.10
2019-02-18T15:47:00.354Z,12.10
2019-02-18T15:48:05.555Z,12.10
2019-02-18T15:49:10.208Z,12.00
2019-02-18T15:50:15.555Z,12.00
2019-02-18T15:51:20.278Z,12.00
2019-02-18T15:52:24.927Z,11.90
2019-02-18T15:53:29.769Z,11.90
2019-02-18T15:54:34.435Z,11.90
2019-02-18T15:55:40.135Z,11.80
2019-02-18T15:56:44.888Z,11.80
2019-02-18T15:57:49.498Z,11.80
2019-02-18T15:58:54.153Z,11.70
2019-02-18T15:59:58.828Z,11.70
2019-02-18T16:01:04.068Z,11.70
2019-02-18T16:02:09.440Z,11.60
2019-02-18T16:03:14.208Z,11.60
2019-02-18T16:04:18.997Z,11.50
2019-02-18T16:05:23.595Z,11.50
2019-02-18T16:06:28.255Z,11.50
2019-02-18T16:07:32.919Z,11.40
2019-02-18T16:08:37.559Z,11.40
2019-02-18T16:09:42.314Z,11.30
2019-02-18T16:10:48.534Z,11.30
2019-02-18T16:11:53.130Z,11.20
2019-02-18T16:12:57.758Z,11.10
2019-02-18T16:14:02.739Z,11.10